createdAt,value
2018-06-07T00:02:36.692Z,8
2018-06-07T00:08:31.683Z,8.52
2018-06-07T00:14:26.690Z,8.19
2018-06-07T00:20:21.692Z,7.98
2018-06-07T00:26:16.751Z,7.53
2018-06-07T00:32:11.687Z,7.07
2018-06-07T00:38:06.660Z,7.3
2018-06-07T00:44:01.683Z,7.43
2018-06-07T00:49:56.679Z,6.99
2018-06-07T00:55:51.650Z,8.58
2018-06-07T01:01:46.661Z,6.82
2018-06-07T01:07:41.693Z,8.57
2018-06-07T01:13:36.679Z,8.09
2018-06-07T01:19:31.690Z,7.17
2018-06-07T01:25:26.706Z,6.75
2018-06-07T01:31:21.701Z,6.71
2018-06-07T01:37:16.696Z,7.94
2018-06-07T01:43:11.709Z,7.53
2018-06-07T01:49:06.679Z,6.57
2018-06-07T01:55:01.720Z,5.7
2018-06-07T02:00:56.734Z,6.87
2018-06-07T02:12:46.699Z,6.19
2018-06-07T02:12:46.764Z,7.02
2018-06-07T02:18:59.803Z,5.97
2018-06-07T02:36:26.719Z,6.09
2018-06-07T02:36:26.759Z,5.68
2018-06-07T02:48:16.747Z,6.55
2018-06-07T03:00:06.702Z,9.38
2018-06-07T03:06:01.731Z,7.87
2018-06-07T03:11:56.733Z,6.96
2018-06-07T03:17:51.770Z,5.48
2018-06-07T03:23:46.727Z,5.08
2018-06-07T03:29:41.746Z,6.03
2018-06-07T03:35:36.730Z,6.78
2018-06-07T03:41:31.788Z,6.55
2018-06-07T03:47:26.763Z,7.37
2018-06-07T03:53:21.797Z,8
2018-06-07T03:59:16.815Z,8.9
2018-06-07T04:05:12.042Z,8.48
2018-06-07T04:11:06.778Z,8.64
2018-06-07T04:17:01.769Z,8.66
2018-06-07T04:22:56.779Z,8.63
2018-06-07T04:28:51.772Z,9.71
2018-06-07T04:34:46.758Z,7.7
2018-06-07T04:40:41.753Z,6.73
2018-06-07T04:46:36.779Z,7.06
2018-06-07T04:52:31.748Z,6.74
2018-06-07T04:58:26.804Z,7.86
2018-06-07T05:04:21.747Z,7.52
2018-06-07T05:10:16.766Z,12.02
2018-06-07T05:16:11.810Z,15.02
2018-06-07T05:22:06.845Z,10.02
2018-06-07T05:28:01.761Z,10.85
2018-06-07T05:33:56.753Z,12.77
2018-06-07T05:39:51.771Z,16.88
2018-06-07T05:45:46.786Z,11.07
2018-06-07T05:51:41.764Z,9.61
2018-06-07T05:57:36.821Z,9.37
2018-06-07T06:09:27.150Z,9.47
2018-06-07T06:15:21.786Z,8.72
2018-06-07T06:21:16.823Z,9.63
2018-06-07T06:27:11.804Z,10.56
2018-06-07T06:33:06.832Z,10.51
2018-06-07T06:39:02.146Z,10.46
2018-06-07T06:44:56.784Z,10.34
2018-06-07T06:50:51.938Z,10.61
2018-06-07T06:56:46.815Z,9.83
2018-06-07T07:02:41.820Z,9.05
2018-06-07T07:08:36.830Z,8.17
2018-06-07T07:14:31.805Z,8.38
2018-06-07T07:20:26.807Z,8.78
2018-06-07T07:26:21.991Z,8.47
2018-06-07T07:32:16.816Z,8.65
2018-06-07T07:38:11.853Z,7.89
2018-06-07T07:44:06.784Z,7.76
2018-06-07T07:50:01.814Z,7.46
2018-06-07T07:55:56.828Z,6.95
2018-06-07T08:01:51.831Z,6.84
2018-06-07T08:07:46.822Z,6.88
2018-06-07T08:13:41.825Z,7
2018-06-07T08:19:36.841Z,6.71
2018-06-07T08:25:31.874Z,5.91
2018-06-07T08:31:26.816Z,7.1
2018-06-07T08:37:21.803Z,5.34
2018-06-07T08:43:16.837Z,5.54
2018-06-07T08:49:11.815Z,5.63
2018-06-07T08:55:07.007Z,5.53
2018-06-07T09:01:02.395Z,4.63
2018-06-07T09:06:56.854Z,4.22
2018-06-07T09:12:51.820Z,4.41
2018-06-07T09:18:46.862Z,4.94
2018-06-07T09:24:41.859Z,6.91
2018-06-07T09:30:37.046Z,4.31
2018-06-07T09:36:32.064Z,3.62
2018-06-07T09:42:26.899Z,3.68
2018-06-07T09:48:21.943Z,3.62
2018-06-07T09:54:16.925Z,3.45
2018-06-07T10:00:11.892Z,26.23
2018-06-07T10:06:06.909Z,2.9
2018-06-07T10:12:02.082Z,2.93
2018-06-07T10:17:56.945Z,2.71
2018-06-07T10:23:51.871Z,2.78
2018-06-07T10:29:46.889Z,2.58
2018-06-07T10:35:41.866Z,2.75
2018-06-07T10:41:36.853Z,3.31
2018-06-07T10:47:31.925Z,3.08
2018-06-07T10:53:26.883Z,3.13
2018-06-07T10:59:21.896Z,3.3
2018-06-07T11:05:17.028Z,2.85
2018-06-07T11:11:11.914Z,2.65
2018-06-07T11:17:06.965Z,3.02
2018-06-07T11:23:01.969Z,3.77
2018-06-07T11:28:56.952Z,3.41
2018-06-07T11:34:51.868Z,3.49
2018-06-07T11:40:46.997Z,3.13
2018-06-07T11:46:41.911Z,3.28
2018-06-07T11:52:36.875Z,2.62
2018-06-07T11:58:31.927Z,3.49
2018-06-07T12:04:26.944Z,2.45
2018-06-07T12:10:22.010Z,2.51
2018-06-07T12:16:16.900Z,2.87
2018-06-07T12:22:11.890Z,2.71
2018-06-07T12:28:06.917Z,3.19
2018-06-07T12:34:01.923Z,3.5
2018-06-07T12:39:57.030Z,2.72
2018-06-07T12:45:51.900Z,3.32
2018-06-07T12:51:46.898Z,3.34
2018-06-07T12:57:42.030Z,3.67
2018-06-07T13:03:37.192Z,2.67
2018-06-07T13:09:31.967Z,2.8
2018-06-07T13:15:27.062Z,3.2
2018-06-07T13:21:21.909Z,2.66
2018-06-07T13:27:16.943Z,3.01
2018-06-07T13:33:11.997Z,2.68
2018-06-07T13:39:06.949Z,2.64
2018-06-07T13:45:02.331Z,2.92
2018-06-07T13:50:56.944Z,2.79
2018-06-07T13:56:51.957Z,2.63
2018-06-07T14:02:50.392Z,3.11
2018-06-07T14:08:41.958Z,2.78
2018-06-07T14:14:37.175Z,3.35
2018-06-07T14:20:31.942Z,3.81
2018-06-07T14:26:26.989Z,2.79
2018-06-07T14:32:21.954Z,2.69
2018-06-07T14:38:17.084Z,2.88
2018-06-07T14:44:11.943Z,2.82
2018-06-07T14:50:08.181Z,2.16
2018-06-07T14:56:01.977Z,2.49
2018-06-07T15:01:57.051Z,2.4
2018-06-07T15:07:51.975Z,2.5
2018-06-07T15:13:47.000Z,2.65
2018-06-07T15:19:42.206Z,2.77
2018-06-07T15:25:36.957Z,2.72
2018-06-07T15:31:32.024Z,2.79
2018-06-07T15:37:26.996Z,2.75
2018-06-07T15:43:21.993Z,2.39
2018-06-07T15:49:17.016Z,2.97
2018-06-07T15:55:12.508Z,3.45
2018-06-07T16:01:07.004Z,3.3
2018-06-07T16:07:02.050Z,3.62
2018-06-07T16:12:56.980Z,9.64
2018-06-07T16:18:52.258Z,15.52
2018-06-07T16:24:47.215Z,3.55
2018-06-07T16:30:41.972Z,3.52
2018-06-07T16:36:36.975Z,4.17
2018-06-07T16:42:32.016Z,4.03
2018-06-07T16:48:26.999Z,4.08
2018-06-07T16:54:22.047Z,3.83
2018-06-07T17:00:17.398Z,4.21
2018-06-07T17:06:12.011Z,4.76
2018-06-07T17:12:06.988Z,4.31
2018-06-07T17:18:02.054Z,4.42
2018-06-07T17:23:57.017Z,4.27
2018-06-07T17:29:52.009Z,4.36
2018-06-07T17:35:47.961Z,3.92
2018-06-07T17:41:42.085Z,4.32
2018-06-07T17:47:37.105Z,4.16
2018-06-07T17:53:32.039Z,3.87
2018-06-07T17:59:27.105Z,4.46
2018-06-07T18:05:22.015Z,4.15
2018-06-07T18:11:17.047Z,4.19
2018-06-07T18:17:12.037Z,3.77
2018-06-07T18:23:07.027Z,3.64
2018-06-07T18:29:02.026Z,3.58
2018-06-07T18:34:57.026Z,3.71
2018-06-07T18:40:52.103Z,3.87
2018-06-07T18:46:47.104Z,3.46
2018-06-07T18:52:42.067Z,3.3
2018-06-07T18:58:37.056Z,3.8
2018-06-07T19:04:32.074Z,3.46
2018-06-07T19:10:27.208Z,3.94
2018-06-07T19:16:22.056Z,3.44
2018-06-07T19:22:17.111Z,4.3
2018-06-07T19:28:12.208Z,3.95
2018-06-07T19:34:07.061Z,3.27
2018-06-07T19:40:02.563Z,4.03
2018-06-07T19:45:57.112Z,4.14
2018-06-07T19:51:52.104Z,3.43
2018-06-07T19:57:47.072Z,3.52
2018-06-07T20:03:42.100Z,3.64
2018-06-07T20:09:37.088Z,3.45
2018-06-07T20:15:32.084Z,4.17
2018-06-07T20:21:27.068Z,4.17
2018-06-07T20:27:22.134Z,3.19
2018-06-07T20:33:17.066Z,3.55
2018-06-07T20:39:12.123Z,3.32
2018-06-07T20:45:07.517Z,3.82
2018-06-07T20:51:02.166Z,4.34
2018-06-07T20:56:57.102Z,3.38
2018-06-07T21:02:52.080Z,3.64
2018-06-07T21:08:47.103Z,3.49
2018-06-07T21:14:42.216Z,4.13
2018-06-07T21:20:37.185Z,4.92
2018-06-07T21:26:32.149Z,4.03
2018-06-07T21:32:27.140Z,4.4
2018-06-07T21:38:22.131Z,4.65
2018-06-07T21:44:17.147Z,4.14
2018-06-07T21:50:12.565Z,4.86
2018-06-07T21:56:07.113Z,4.79
2018-06-07T22:02:02.278Z,4.07
2018-06-07T22:07:57.121Z,4.58
2018-06-07T22:13:52.137Z,4.31
2018-06-07T22:19:47.123Z,4.82
2018-06-07T22:43:27.170Z,4.79
2018-06-07T22:43:27.186Z,4.08
2018-06-07T22:43:27.194Z,4.08
2018-06-07T22:55:17.200Z,4.4
2018-06-07T22:55:17.518Z,4.05
2018-06-07T23:01:12.307Z,3.04
2018-06-07T23:07:07.150Z,3.45
2018-06-07T23:13:02.154Z,4.64
2018-06-07T23:24:52.170Z,4.48
2018-06-07T23:24:52.239Z,5.01
2018-06-07T23:30:47.161Z,4.55
2018-06-07T23:36:42.148Z,5.27
2018-06-07T23:42:37.275Z,5.13
2018-06-07T23:48:32.161Z,4.85
2018-06-07T23:54:27.223Z,4.04
